sensor_id;sensor_type;location;lat;lon;timestamp;temperature;humidity
63976;DHT22;50167;47.958;21.780;2022-10-17T00:00:36;13.02;60.82
63976;DHT22;50167;47.958;21.780;2022-10-17T00:03:02;12.26;62.60
63976;DHT22;50167;47.958;21.780;2022-10-17T00:05:28;12.71;66.67
63976;DHT22;50167;47.958;21.780;2022-10-17T00:07:54;14.03;65.13
63976;DHT22;50167;47.958;21.780;2022-10-17T00:10:21;14.85;61.77
63976;DHT22;50167;47.958;21.780;2022-10-17T00:12:47;15.33;59.86
63976;DHT22;50167;47.958;21.780;2022-10-17T00:15:19;14.98;56.80
63976;DHT22;50167;47.958;21.780;2022-10-17T00:17:46;13.79;57.85
63976;DHT22;50167;47.958;21.780;2022-10-17T00:20:14;12.82;60.12
63976;DHT22;50167;47.958;21.780;2022-10-17T00:22:41;12.10;62.23
63976;DHT22;50167;47.958;21.780;2022-10-17T00:25:08;12.61;67.23
63976;DHT22;50167;47.958;21.780;2022-10-17T00:27:37;13.99;65.26
63976;DHT22;50167;47.958;21.780;2022-10-17T00:30:08;14.82;61.49
63976;DHT22;50167;47.958;21.780;2022-10-17T00:32:34;15.26;59.16
63976;DHT22;50167;47.958;21.780;2022-10-17T00:35:01;14.88;56.51
63976;DHT22;50167;47.958;21.780;2022-10-17T00:37:28;13.79;57.99
63976;DHT22;50167;47.958;21.780;2022-10-17T00:39:54;12.87;59.98
63976;DHT22;50167;47.958;21.780;2022-10-17T00:42:20;12.21;61.86
63976;DHT22;50167;47.958;21.780;2022-10-17T00:44:58;12.66;66.21
63976;DHT22;50167;47.958;21.780;2022-10-17T00:47:24;13.81;64.17
63976;DHT22;50167;47.958;21.780;2022-10-17T00:49:50;14.51;61.75
63976;DHT22;50167;47.958;21.780;2022-10-17T00:52:24;14.98;59.93
63976;DHT22;50167;47.958;21.780;2022-10-17T00:55:00;15.25;59.03
63976;DHT22;50167;47.958;21.780;2022-10-17T00:57:27;14.67;56.84
63976;DHT22;50167;47.958;21.780;2022-10-17T00:59:56;13.55;58.40
63976;DHT22;50167;47.958;21.780;2022-10-17T01:02:23;12.65;60.86
63976;DHT22;50167;47.958;21.780;2022-10-17T01:04:51;12.01;62.50
63976;DHT22;50167;47.958;21.780;2022-10-17T01:07:20;12.59;67.27
63976;DHT22;50167;47.958;21.780;2022-10-17T01:09:46;13.89;64.65
63976;DHT22;50167;47.958;21.780;2022-10-17T01:12:24;14.61;61.97
63976;DHT22;50167;47.958;21.780;2022-10-17T01:24:54;12.20;60.94
63976;DHT22;50167;47.958;21.780;2022-10-17T01:30:05;12.34;67.81
63976;DHT22;50167;47.958;21.780;2022-10-17T01:32:36;13.58;63.99
63976;DHT22;50167;47.958;21.780;2022-10-17T01:40:38;14.71;59.66
63976;DHT22;50167;47.958;21.780;2022-10-17T01:43:28;14.29;56.95
63976;DHT22;50167;47.958;21.780;2022-10-17T01:46:00;12.98;58.46
63976;DHT22;50167;47.958;21.780;2022-10-17T01:48:34;12.01;60.41
63976;DHT22;50167;47.958;21.780;2022-10-17T01:51:06;11.32;62.63
63976;DHT22;50167;47.958;21.780;2022-10-17T01:53:48;11.94;67.70
63976;DHT22;50167;47.958;21.780;2022-10-17T01:56:12;13.24;65.27
63976;DHT22;50167;47.958;21.780;2022-10-17T01:58:56;13.86;62.53
63976;DHT22;50167;47.958;21.780;2022-10-17T02:01:20;14.23;60.10
63976;DHT22;50167;47.958;21.780;2022-10-17T02:03:48;14.51;58.87
63976;DHT22;50167;47.958;21.780;2022-10-17T02:06:15;14.06;56.45
63976;DHT22;50167;47.958;21.780;2022-10-17T02:08:46;13.02;57.84
63976;DHT22;50167;47.958;21.780;2022-10-17T02:11:24;12.12;59.55
63976;DHT22;50167;47.958;21.780;2022-10-17T02:22:46;14.20;60.82
63976;DHT22;50167;47.958;21.780;2022-10-17T02:25:35;14.44;59.65
63976;DHT22;50167;47.958;21.780;2022-10-17T02:28:19;13.81;57.18
63976;DHT22;50167;47.958;21.780;2022-10-17T02:30:59;12.52;58.53
63976;DHT22;50167;47.958;21.780;2022-10-17T02:33:36;11.55;61.08
63976;DHT22;50167;47.958;21.780;2022-10-17T02:36:08;10.84;63.15
63976;DHT22;50167;47.958;21.780;2022-10-17T02:38:34;11.44;68.75
63976;DHT22;50167;47.958;21.780;2022-10-17T02:41:01;12.86;66.56
63976;DHT22;50167;47.958;21.780;2022-10-17T02:43:28;13.81;62.72
63976;DHT22;50167;47.958;21.780;2022-10-17T02:45:56;14.43;59.58
63976;DHT22;50167;47.958;21.780;2022-10-17T02:48:43;14.06;56.40
63976;DHT22;50167;47.958;21.780;2022-10-17T02:59:35;11.79;67.31
63976;DHT22;50167;47.958;21.780;2022-10-17T03:02:04;13.07;64.68
63976;DHT22;50167;47.958;21.780;2022-10-17T03:04:31;13.79;61.25
63976;DHT22;50167;47.958;21.780;2022-10-17T03:06:57;14.30;59.04
63976;DHT22;50167;47.958;21.780;2022-10-17T03:09:23;13.93;56.11
63976;DHT22;50167;47.958;21.780;2022-10-17T03:11:49;12.83;57.35
63976;DHT22;50167;47.958;21.780;2022-10-17T03:14:15;11.96;59.44
63976;DHT22;50167;47.958;21.780;2022-10-17T03:16:41;11.28;60.91
63976;DHT22;50167;47.958;21.780;2022-10-17T03:19:07;10.73;62.50
63976;DHT22;50167;47.958;21.780;2022-10-17T03:21:34;11.31;67.81
63976;DHT22;50167;47.958;21.780;2022-10-17T03:24:03;12.66;65.90
63976;DHT22;50167;47.958;21.780;2022-10-17T03:26:30;13.40;62.18
63976;DHT22;50167;47.958;21.780;2022-10-17T03:28:56;13.82;60.24
63976;DHT22;50167;47.958;21.780;2022-10-17T03:31:22;14.17;59.14
63976;DHT22;50167;47.958;21.780;2022-10-17T03:33:48;13.74;56.51
63976;DHT22;50167;47.958;21.780;2022-10-17T03:36:16;12.68;57.44
63976;DHT22;50167;47.958;21.780;2022-10-17T03:38:45;11.78;59.14
63976;DHT22;50167;47.958;21.780;2022-10-17T03:41:13;11.07;61.64
63976;DHT22;50167;47.958;21.780;2022-10-17T03:43:39;11.47;66.41
63976;DHT22;50167;47.958;21.780;2022-10-17T03:46:06;12.68;64.32
63976;DHT22;50167;47.958;21.780;2022-10-17T03:48:32;13.44;61.36
63976;DHT22;50167;47.958;21.780;2022-10-17T03:51:07;13.86;59.47
63976;DHT22;50167;47.958;21.780;2022-10-17T03:53:34;13.51;56.92
63976;DHT22;50167;47.958;21.780;2022-10-17T03:56:21;12.40;58.32
63976;DHT22;50167;47.958;21.780;2022-10-17T03:58:47;11.45;60.73
63976;DHT22;50167;47.958;21.780;2022-10-17T04:01:16;10.80;62.30
63976;DHT22;50167;47.958;21.780;2022-10-17T04:03:47;11.31;67.63
63976;DHT22;50167;47.958;21.780;2022-10-17T04:06:12;12.56;66.01
63976;DHT22;50167;47.958;21.780;2022-10-17T04:08:38;13.30;62.76
63976;DHT22;50167;47.958;21.780;2022-10-17T04:11:06;13.78;60.60
63976;DHT22;50167;47.958;21.780;2022-10-17T04:13:34;14.09;59.23
63976;DHT22;50167;47.958;21.780;2022-10-17T04:16:04;13.65;56.58
63976;DHT22;50167;47.958;21.780;2022-10-17T04:18:31;12.54;57.68
63976;DHT22;50167;47.958;21.780;2022-10-17T04:20:59;11.64;59.68
63976;DHT22;50167;47.958;21.780;2022-10-17T04:23:25;10.89;61.88
63976;DHT22;50167;47.958;21.780;2022-10-17T04:25:57;11.21;66.90
63976;DHT22;50167;47.958;21.780;2022-10-17T04:28:24;12.47;65.27
63976;DHT22;50167;47.958;21.780;2022-10-17T04:31:06;13.16;62.26
63976;DHT22;50167;47.958;21.780;2022-10-17T04:33:33;13.60;60.88
63976;DHT22;50167;47.958;21.780;2022-10-17T04:36:05;14.02;58.61
63976;DHT22;50167;47.958;21.780;2022-10-17T04:38:32;13.52;56.09
63976;DHT22;50167;47.958;21.780;2022-10-17T04:41:06;12.41;57.50
63976;DHT22;50167;47.958;21.780;2022-10-17T04:43:34;11.54;59.62
63976;DHT22;50167;47.958;21.780;2022-10-17T04:46:04;10.86;61.49
63976;DHT22;50167;47.958;21.780;2022-10-17T04:48:30;10.32;62.80
63976;DHT22;50167;47.958;21.780;2022-10-17T04:51:01;10.96;67.88
63976;DHT22;50167;47.958;21.780;2022-10-17T04:53:30;12.47;65.27
63976;DHT22;50167;47.958;21.780;2022-10-17T04:55:56;13.35;61.52
63976;DHT22;50167;47.958;21.780;2022-10-17T04:58:23;13.84;59.10
63976;DHT22;50167;47.958;21.780;2022-10-17T05:00:49;13.40;56.17
63976;DHT22;50167;47.958;21.780;2022-10-17T05:03:15;12.33;57.70
63976;DHT22;50167;47.958;21.780;2022-10-17T05:05:42;11.41;59.71
63976;DHT22;50167;47.958;21.780;2022-10-17T05:08:09;10.79;61.61
63976;DHT22;50167;47.958;21.780;2022-10-17T05:10:40;11.32;66.87
63976;DHT22;50167;47.958;21.780;2022-10-17T05:13:08;12.72;63.86
63976;DHT22;50167;47.958;21.780;2022-10-17T05:15:35;13.48;60.44
63976;DHT22;50167;47.958;21.780;2022-10-17T05:18:01;13.96;58.71
63976;DHT22;50167;47.958;21.780;2022-10-17T05:20:27;13.57;56.11
63976;DHT22;50167;47.958;21.780;2022-10-17T05:22:53;12.49;57.44
63976;DHT22;50167;47.958;21.780;2022-10-17T05:25:20;11.65;59.31
63976;DHT22;50167;47.958;21.780;2022-10-17T05:27:46;10.97;61.35
63976;DHT22;50167;47.958;21.780;2022-10-17T05:30:12;10.42;63.24
63976;DHT22;50167;47.958;21.780;2022-10-17T05:32:39;11.02;68.12
63976;DHT22;50167;47.958;21.780;2022-10-17T05:35:06;12.34;66.60
63976;DHT22;50167;47.958;21.780;2022-10-17T05:37:32;13.14;63.80
63976;DHT22;50167;47.958;21.780;2022-10-17T05:39:58;13.72;61.15
63976;DHT22;50167;47.958;21.780;2022-10-17T05:42:24;14.26;59.74
63976;DHT22;50167;47.958;21.780;2022-10-17T05:44:50;14.00;56.94
63976;DHT22;50167;47.958;21.780;2022-10-17T05:47:16;13.00;58.00
63976;DHT22;50167;47.958;21.780;2022-10-17T05:49:42;12.24;60.35
63976;DHT22;50167;47.958;21.780;2022-10-17T05:52:08;11.65;62.16
63976;DHT22;50167;47.958;21.780;2022-10-17T05:54:34;12.17;66.16
63976;DHT22;50167;47.958;21.780;2022-10-17T05:57:00;13.55;64.22
63976;DHT22;50167;47.958;21.780;2022-10-17T05:59:26;14.44;61.08
63976;DHT22;50167;47.958;21.780;2022-10-17T06:01:53;15.03;59.15
63976;DHT22;50167;47.958;21.780;2022-10-17T06:04:19;14.72;56.61
63976;DHT22;50167;47.958;21.780;2022-10-17T06:06:45;13.77;58.15
63976;DHT22;50167;47.958;21.780;2022-10-17T06:09:12;13.03;60.84
63976;DHT22;50167;47.958;21.780;2022-10-17T06:11:38;12.52;62.33
63976;DHT22;50167;47.958;21.780;2022-10-17T06:14:04;13.04;66.17
63976;DHT22;50167;47.958;21.780;2022-10-17T06:16:30;14.53;64.13
63976;DHT22;50167;47.958;21.780;2022-10-17T06:18:56;15.44;60.85
63976;DHT22;50167;47.958;21.780;2022-10-17T06:21:25;16.01;59.03
63976;DHT22;50167;47.958;21.780;2022-10-17T06:23:52;15.63;56.72
63976;DHT22;50167;47.958;21.780;2022-10-17T06:26:19;14.61;58.60
63976;DHT22;50167;47.958;21.780;2022-10-17T06:28:45;13.92;60.76
63976;DHT22;50167;47.958;21.780;2022-10-17T06:31:14;13.47;62.50
63976;DHT22;50167;47.958;21.780;2022-10-17T06:33:41;14.19;66.00
63976;DHT22;50167;47.958;21.780;2022-10-17T06:36:10;15.53;62.93
63976;DHT22;50167;47.958;21.780;2022-10-17T06:38:36;16.32;60.06
63976;DHT22;50167;47.958;21.780;2022-10-17T06:41:12;16.81;58.48
63976;DHT22;50167;47.958;21.780;2022-10-17T06:43:41;16.51;56.99
63976;DHT22;50167;47.958;21.780;2022-10-17T06:46:10;15.77;58.22
63976;DHT22;50167;47.958;21.780;2022-10-17T06:48:36;15.25;59.94
63976;DHT22;50167;47.958;21.780;2022-10-17T06:51:04;14.85;61.79
63976;DHT22;50167;47.958;21.780;2022-10-17T06:53:33;14.57;62.91
63976;DHT22;50167;47.958;21.780;2022-10-17T06:56:01;15.37;65.56
63976;DHT22;50167;47.958;21.780;2022-10-17T06:58:30;16.78;62.14
63976;DHT22;50167;47.958;21.780;2022-10-17T07:01:05;17.66;59.12
63976;DHT22;50167;47.958;21.780;2022-10-17T07:03:29;17.50;56.85
63976;DHT22;50167;47.958;21.780;2022-10-17T07:05:56;16.72;57.91
63976;DHT22;50167;47.958;21.780;2022-10-17T07:08:23;16.18;59.65
63976;DHT22;50167;47.958;21.780;2022-10-17T07:10:51;15.77;61.28
63976;DHT22;50167;47.958;21.780;2022-10-17T07:13:18;15.49;62.45
63976;DHT22;50167;47.958;21.780;2022-10-17T07:15:44;16.18;64.22
63976;DHT22;50167;47.958;21.780;2022-10-17T07:18:11;17.64;61.32
63976;DHT22;50167;47.958;21.780;2022-10-17T07:20:37;18.62;58.19
63976;DHT22;50167;47.958;21.780;2022-10-17T07:23:03;18.60;55.10
63976;DHT22;50167;47.958;21.780;2022-10-17T07:25:29;17.88;56.08
63976;DHT22;50167;47.958;21.780;2022-10-17T07:27:56;17.35;57.63
63976;DHT22;50167;47.958;21.780;2022-10-17T07:30:23;16.90;59.24
63976;DHT22;50167;47.958;21.780;2022-10-17T07:32:52;16.64;60.45
63976;DHT22;50167;47.958;21.780;2022-10-17T07:35:19;16.44;61.28
63976;DHT22;50167;47.958;21.780;2022-10-17T07:37:46;16.26;61.69
63976;DHT22;50167;47.958;21.780;2022-10-17T07:40:12;16.13;62.80
63976;DHT22;50167;47.958;21.780;2022-10-17T07:42:38;16.90;64.16
63976;DHT22;50167;47.958;21.780;2022-10-17T07:45:05;18.41;61.05
63976;DHT22;50167;47.958;21.780;2022-10-17T07:47:31;19.52;57.35
63976;DHT22;50167;47.958;21.780;2022-10-17T07:50:00;19.48;54.97
63976;DHT22;50167;47.958;21.780;2022-10-17T07:52:26;18.74;56.05
63976;DHT22;50167;47.958;21.780;2022-10-17T07:54:52;18.23;57.33
63976;DHT22;50167;47.958;21.780;2022-10-17T07:57:18;17.83;58.74
63976;DHT22;50167;47.958;21.780;2022-10-17T07:59:44;17.50;60.10
63976;DHT22;50167;47.958;21.780;2022-10-17T08:02:21;17.26;61.80
63976;DHT22;50167;47.958;21.780;2022-10-17T08:04:45;17.02;62.56
63976;DHT22;50167;47.958;21.780;2022-10-17T08:07:11;17.78;62.91
63976;DHT22;50167;47.958;21.780;2022-10-17T08:09:37;19.21;60.06
63976;DHT22;50167;47.958;21.780;2022-10-17T08:12:03;19.56;56.33
63976;DHT22;50167;47.958;21.780;2022-10-17T08:14:29;19.00;56.46
63976;DHT22;50167;47.958;21.780;2022-10-17T08:16:55;18.62;57.09
63976;DHT22;50167;47.958;21.780;2022-10-17T08:19:21;18.39;58.00
63976;DHT22;50167;47.958;21.780;2022-10-17T08:21:47;18.29;59.42
63976;DHT22;50167;47.958;21.780;2022-10-17T08:24:15;18.22;59.58
63976;DHT22;50167;47.958;21.780;2022-10-17T08:26:41;18.18;59.66
63976;DHT22;50167;47.958;21.780;2022-10-17T08:29:13;18.12;60.23
63976;DHT22;50167;47.958;21.780;2022-10-17T08:31:39;18.09;59.92
63976;DHT22;50167;47.958;21.780;2022-10-17T08:34:06;18.14;59.86
63976;DHT22;50167;47.958;21.780;2022-10-17T08:36:32;18.18;59.58
63976;DHT22;50167;47.958;21.780;2022-10-17T08:38:58;18.19;59.53
63976;DHT22;50167;47.958;21.780;2022-10-17T08:41:51;18.23;59.81
63976;DHT22;50167;47.958;21.780;2022-10-17T08:44:35;18.28;60.44
63976;DHT22;50167;47.958;21.780;2022-10-17T08:47:02;18.35;58.76
63976;DHT22;50167;47.958;21.780;2022-10-17T08:49:52;18.42;57.46
63976;DHT22;50167;47.958;21.780;2022-10-17T08:52:50;18.49;58.01
63976;DHT22;50167;47.958;21.780;2022-10-17T08:55:31;18.81;57.51
63976;DHT22;50167;47.958;21.780;2022-10-17T08:57:56;19.39;55.74
63976;DHT22;50167;47.958;21.780;2022-10-17T09:00:22;20.17;53.47
63976;DHT22;50167;47.958;21.780;2022-10-17T09:05:37;22.16;51.53
63976;DHT22;50167;47.958;21.780;2022-10-17T09:14:26;25.91;39.93
63976;DHT22;50167;47.958;21.780;2022-10-17T09:16:58;27.04;37.63
63976;DHT22;50167;47.958;21.780;2022-10-17T09:19:39;28.20;34.59
63976;DHT22;50167;47.958;21.780;2022-10-17T09:22:17;29.05;32.24
63976;DHT22;50167;47.958;21.780;2022-10-17T09:24:57;29.50;32.79
63976;DHT22;50167;47.958;21.780;2022-10-17T09:27:39;29.92;32.56
63976;DHT22;50167;47.958;21.780;2022-10-17T09:30:41;30.52;31.38
63976;DHT22;50167;47.958;21.780;2022-10-17T09:33:24;31.11;29.84
63976;DHT22;50167;47.958;21.780;2022-10-17T09:35:50;31.59;29.50
63976;DHT22;50167;47.958;21.780;2022-10-17T09:38:21;31.95;29.46
63976;DHT22;50167;47.958;21.780;2022-10-17T09:40:58;32.49;28.25
63976;DHT22;50167;47.958;21.780;2022-10-17T09:43:25;33.06;28.15
63976;DHT22;50167;47.958;21.780;2022-10-17T09:46:11;33.34;27.26
63976;DHT22;50167;47.958;21.780;2022-10-17T09:48:47;33.71;26.83
63976;DHT22;50167;47.958;21.780;2022-10-17T09:51:14;33.95;26.24
63976;DHT22;50167;47.958;21.780;2022-10-17T09:53:48;34.22;24.86
63976;DHT22;50167;47.958;21.780;2022-10-17T09:56:17;34.12;25.44
63976;DHT22;50167;47.958;21.780;2022-10-17T09:58:51;34.30;25.18
63976;DHT22;50167;47.958;21.780;2022-10-17T10:01:30;34.68;25.49
63976;DHT22;50167;47.958;21.780;2022-10-17T10:04:15;34.85;25.33
63976;DHT22;50167;47.958;21.780;2022-10-17T10:07:04;34.98;24.92
63976;DHT22;50167;47.958;21.780;2022-10-17T10:09:32;35.22;24.63
63976;DHT22;50167;47.958;21.780;2022-10-17T10:12:05;35.36;24.20
63976;DHT22;50167;47.958;21.780;2022-10-17T10:14:35;35.56;24.11
63976;DHT22;50167;47.958;21.780;2022-10-17T10:17:05;35.55;23.64
63976;DHT22;50167;47.958;21.780;2022-10-17T10:19:36;35.55;23.70
63976;DHT22;50167;47.958;21.780;2022-10-17T10:22:15;35.11;23.74
63976;DHT22;50167;47.958;21.780;2022-10-17T10:24:41;34.84;24.46
63976;DHT22;50167;47.958;21.780;2022-10-17T10:27:17;34.75;25.30
63976;DHT22;50167;47.958;21.780;2022-10-17T10:29:51;34.57;24.01
63976;DHT22;50167;47.958;21.780;2022-10-17T10:32:29;34.60;23.96
63976;DHT22;50167;47.958;21.780;2022-10-17T10:34:58;34.30;23.91
63976;DHT22;50167;47.958;21.780;2022-10-17T10:37:44;33.16;26.02
63976;DHT22;50167;47.958;21.780;2022-10-17T10:42:50;30.82;27.62
63976;DHT22;50167;47.958;21.780;2022-10-17T10:48:21;31.09;27.82
63976;DHT22;50167;47.958;21.780;2022-10-17T10:56:39;32.61;26.18
63976;DHT22;50167;47.958;21.780;2022-10-17T10:59:16;32.90;26.32
63976;DHT22;50167;47.958;21.780;2022-10-17T11:02:10;32.85;26.36
63976;DHT22;50167;47.958;21.780;2022-10-17T11:04:51;32.01;26.02
63976;DHT22;50167;47.958;21.780;2022-10-17T11:07:40;31.30;27.44
63976;DHT22;50167;47.958;21.780;2022-10-17T11:10:42;30.69;28.56
63976;DHT22;50167;47.958;21.780;2022-10-17T11:13:20;29.68;30.79
63976;DHT22;50167;47.958;21.780;2022-10-17T11:21:50;28.75;31.71
63976;DHT22;50167;47.958;21.780;2022-10-17T11:24:32;29.20;31.19
63976;DHT22;50167;47.958;21.780;2022-10-17T11:27:03;29.84;30.37
63976;DHT22;50167;47.958;21.780;2022-10-17T11:29:33;29.95;30.16
63976;DHT22;50167;47.958;21.780;2022-10-17T11:32:08;29.63;30.57
63976;DHT22;50167;47.958;21.780;2022-10-17T11:34:40;29.74;30.03
63976;DHT22;50167;47.958;21.780;2022-10-17T11:37:17;30.32;29.17
63976;DHT22;50167;47.958;21.780;2022-10-17T11:40:05;31.21;29.00
63976;DHT22;50167;47.958;21.780;2022-10-17T11:42:40;32.00;27.37
63976;DHT22;50167;47.958;21.780;2022-10-17T11:45:13;31.84;27.97
63976;DHT22;50167;47.958;21.780;2022-10-17T11:47:57;31.05;29.55
63976;DHT22;50167;47.958;21.780;2022-10-17T11:50:37;30.08;29.35
63976;DHT22;50167;47.958;21.780;2022-10-17T11:53:15;29.25;30.42
63976;DHT22;50167;47.958;21.780;2022-10-17T11:55:42;28.83;31.88
63976;DHT22;50167;47.958;21.780;2022-10-17T11:58:30;28.96;28.61
63976;DHT22;50167;47.958;21.780;2022-10-17T12:01:38;29.34;29.06
63976;DHT22;50167;47.958;21.780;2022-10-17T12:12:41;31.35;26.72
63976;DHT22;50167;47.958;21.780;2022-10-17T12:18:00;31.72;25.16
63976;DHT22;50167;47.958;21.780;2022-10-17T12:20:37;31.73;25.92
63976;DHT22;50167;47.958;21.780;2022-10-17T12:26:00;31.02;27.34
63976;DHT22;50167;47.958;21.780;2022-10-17T12:28:45;30.19;28.48
63976;DHT22;50167;47.958;21.780;2022-10-17T12:34:03;31.35;26.23
63976;DHT22;50167;47.958;21.780;2022-10-17T12:49:46;30.15;28.81
63976;DHT22;50167;47.958;21.780;2022-10-17T12:55:10;30.80;27.33
63976;DHT22;50167;47.958;21.780;2022-10-17T12:58:04;31.75;26.99
63976;DHT22;50167;47.958;21.780;2022-10-17T13:00:53;32.83;25.98
63976;DHT22;50167;47.958;21.780;2022-10-17T13:03:27;33.16;24.96
63976;DHT22;50167;47.958;21.780;2022-10-17T13:05:58;33.47;24.68
63976;DHT22;50167;47.958;21.780;2022-10-17T13:08:31;33.88;24.80
63976;DHT22;50167;47.958;21.780;2022-10-17T13:10:56;34.33;24.00
63976;DHT22;50167;47.958;21.780;2022-10-17T13:16:06;34.57;24.01
63976;DHT22;50167;47.958;21.780;2022-10-17T13:18:33;34.26;23.34
63976;DHT22;50167;47.958;21.780;2022-10-17T13:21:04;33.69;24.60
63976;DHT22;50167;47.958;21.780;2022-10-17T13:23:35;33.28;24.81
63976;DHT22;50167;47.958;21.780;2022-10-17T13:26:21;32.89;26.60
63976;DHT22;50167;47.958;21.780;2022-10-17T13:29:10;32.58;26.24
63976;DHT22;50167;47.958;21.780;2022-10-17T13:31:39;32.08;26.38
63976;DHT22;50167;47.958;21.780;2022-10-17T13:34:19;31.40;27.26
63976;DHT22;50167;47.958;21.780;2022-10-17T13:36:49;30.75;27.83
63976;DHT22;50167;47.958;21.780;2022-10-17T13:39:20;30.20;29.09
63976;DHT22;50167;47.958;21.780;2022-10-17T13:41:46;29.47;29.07
63976;DHT22;50167;47.958;21.780;2022-10-17T13:44:25;28.65;30.04
63976;DHT22;50167;47.958;21.780;2022-10-17T13:46:53;27.85;31.53
63976;DHT22;50167;47.958;21.780;2022-10-17T13:52:02;26.62;33.08
63976;DHT22;50167;47.958;21.780;2022-10-17T13:54:39;26.11;34.73
63976;DHT22;50167;47.958;21.780;2022-10-17T13:59:56;25.30;35.22
63976;DHT22;50167;47.958;21.780;2022-10-17T14:02:24;24.98;35.06
63976;DHT22;50167;47.958;21.780;2022-10-17T14:05:14;24.73;35.85
63976;DHT22;50167;47.958;21.780;2022-10-17T14:10:22;24.16;37.18
63976;DHT22;50167;47.958;21.780;2022-10-17T14:12:51;24.01;38.09
63976;DHT22;50167;47.958;21.780;2022-10-17T14:15:23;23.94;38.33
63976;DHT22;50167;47.958;21.780;2022-10-17T14:17:56;23.91;37.82
63976;DHT22;50167;47.958;21.780;2022-10-17T14:20:23;24.15;37.06
63976;DHT22;50167;47.958;21.780;2022-10-17T14:22:50;24.13;37.40
63976;DHT22;50167;47.958;21.780;2022-10-17T14:25:35;23.98;37.61
63976;DHT22;50167;47.958;21.780;2022-10-17T14:30:48;23.47;38.54
63976;DHT22;50167;47.958;21.780;2022-10-17T14:33:26;23.27;39.93
63976;DHT22;50167;47.958;21.780;2022-10-17T14:35:55;23.30;39.22
63976;DHT22;50167;47.958;21.780;2022-10-17T14:38:23;23.71;39.00
63976;DHT22;50167;47.958;21.780;2022-10-17T14:41:04;24.27;37.80
63976;DHT22;50167;47.958;21.780;2022-10-17T14:43:30;25.01;36.75
63976;DHT22;50167;47.958;21.780;2022-10-17T14:45:59;25.75;36.72
63976;DHT22;50167;47.958;21.780;2022-10-17T14:48:28;26.43;35.88
63976;DHT22;50167;47.958;21.780;2022-10-17T14:51:17;26.76;35.19
63976;DHT22;50167;47.958;21.780;2022-10-17T14:56:40;26.49;35.27
63976;DHT22;50167;47.958;21.780;2022-10-17T14:59:07;26.48;35.43
63976;DHT22;50167;47.958;21.780;2022-10-17T15:01:35;26.17;35.80
63976;DHT22;50167;47.958;21.780;2022-10-17T15:04:03;25.63;36.78
63976;DHT22;50167;47.958;21.780;2022-10-17T15:06:32;25.02;37.71
63976;DHT22;50167;47.958;21.780;2022-10-17T15:08:59;24.44;37.40
63976;DHT22;50167;47.958;21.780;2022-10-17T15:11:25;23.94;39.44
63976;DHT22;50167;47.958;21.780;2022-10-17T15:13:51;23.41;40.20
63976;DHT22;50167;47.958;21.780;2022-10-17T15:16:24;22.93;41.37
63976;DHT22;50167;47.958;21.780;2022-10-17T15:18:52;22.43;43.02
63976;DHT22;50167;47.958;21.780;2022-10-17T15:21:21;22.00;43.82
63976;DHT22;50167;47.958;21.780;2022-10-17T15:23:49;21.59;45.22
63976;DHT22;50167;47.958;21.780;2022-10-17T15:26:24;21.24;46.29
63976;DHT22;50167;47.958;21.780;2022-10-17T15:28:51;20.87;47.55
63976;DHT22;50167;47.958;21.780;2022-10-17T15:31:21;20.49;49.20
63976;DHT22;50167;47.958;21.780;2022-10-17T15:33:48;20.18;49.98
63976;DHT22;50167;47.958;21.780;2022-10-17T15:36:29;19.80;51.37
63976;DHT22;50167;47.958;21.780;2022-10-17T15:38:59;19.44;51.84
63976;DHT22;50167;47.958;21.780;2022-10-17T15:41:29;19.15;53.04
63976;DHT22;50167;47.958;21.780;2022-10-17T15:43:55;18.86;54.47
63976;DHT22;50167;47.958;21.780;2022-10-17T15:46:24;18.59;55.53
63976;DHT22;50167;47.958;21.780;2022-10-17T15:48:53;18.33;56.84
63976;DHT22;50167;47.958;21.780;2022-10-17T15:51:22;18.11;57.47
63976;DHT22;50167;47.958;21.780;2022-10-17T15:53:48;17.90;58.04
63976;DHT22;50167;47.958;21.780;2022-10-17T15:56:25;17.67;59.04
63976;DHT22;50167;47.958;21.780;2022-10-17T15:58:52;17.49;59.68
63976;DHT22;50167;47.958;21.780;2022-10-17T16:01:28;17.29;60.19
63976;DHT22;50167;47.958;21.780;2022-10-17T16:03:55;17.09;61.04
63976;DHT22;50167;47.958;21.780;2022-10-17T16:06:23;16.90;61.95
63976;DHT22;50167;47.958;21.780;2022-10-17T16:08:50;16.72;62.90
63976;DHT22;50167;47.958;21.780;2022-10-17T16:13:59;19.02;68.65
63976;DHT22;50167;47.958;21.780;2022-10-17T16:16:26;19.83;60.17
63976;DHT22;50167;47.958;21.780;2022-10-17T16:18:52;19.81;55.68
63976;DHT22;50167;47.958;21.780;2022-10-17T16:21:22;18.97;56.36
63976;DHT22;50167;47.958;21.780;2022-10-17T16:23:49;18.26;55.34
63976;DHT22;50167;47.958;21.780;2022-10-17T16:26:15;17.72;58.73
63976;DHT22;50167;47.958;21.780;2022-10-17T16:28:43;17.37;60.42
63976;DHT22;50167;47.958;21.780;2022-10-17T16:31:25;17.07;61.59
63976;DHT22;50167;47.958;21.780;2022-10-17T16:33:54;16.75;62.42
63976;DHT22;50167;47.958;21.780;2022-10-17T16:36:21;17.37;65.14
63976;DHT22;50167;47.958;21.780;2022-10-17T16:38:48;18.73;62.82
63976;DHT22;50167;47.958;21.780;2022-10-17T16:43:52;19.46;56.84
63976;DHT22;50167;47.958;21.780;2022-10-17T16:46:19;18.55;57.56
63976;DHT22;50167;47.958;21.780;2022-10-17T16:48:46;17.87;59.06
63976;DHT22;50167;47.958;21.780;2022-10-17T16:51:15;17.35;60.58
63976;DHT22;50167;47.958;21.780;2022-10-17T16:54:02;16.91;61.57
63976;DHT22;50167;47.958;21.780;2022-10-17T16:56:32;16.50;62.70
63976;DHT22;50167;47.958;21.780;2022-10-17T16:59:00;17.18;65.64
63976;DHT22;50167;47.958;21.780;2022-10-17T17:01:27;18.43;63.40
63976;DHT22;50167;47.958;21.780;2022-10-17T17:04:02;19.17;60.27
63976;DHT22;50167;47.958;21.780;2022-10-17T17:06:29;19.67;58.23
63976;DHT22;50167;47.958;21.780;2022-10-17T17:09:01;19.34;56.13
63976;DHT22;50167;47.958;21.780;2022-10-17T17:11:28;18.42;57.42
63976;DHT22;50167;47.958;21.780;2022-10-17T17:13:56;17.70;58.92
63976;DHT22;50167;47.958;21.780;2022-10-17T17:16:24;17.16;60.39
63976;DHT22;50167;47.958;21.780;2022-10-17T17:19:01;16.72;61.71
63976;DHT22;50167;47.958;21.780;2022-10-17T17:21:27;16.35;63.02
63976;DHT22;50167;47.958;21.780;2022-10-17T17:23:54;17.02;65.89
63976;DHT22;50167;47.958;21.780;2022-10-17T17:26:26;18.28;63.40
63976;DHT22;50167;47.958;21.780;2022-10-17T17:28:53;19.01;59.92
63976;DHT22;50167;47.958;21.780;2022-10-17T17:31:23;18.90;57.17
63976;DHT22;50167;47.958;21.780;2022-10-17T17:33:50;17.97;58.58